CW5416 Weather Reports


Display with metric or nautical units.
time (UTC)temp
F
wind
direction
speed
MPH
gust
MPH
rain 1hr
in
rain 24hr
in
rain mn
in
humidity
%
barometer
mb
20180620020508 92 41 5.0 6.0 0.00 0.00 0.00 12 1008.2
20180620020007 93 18 4.0 6.0 0.00 0.00 0.00 12 1008.2
20180620015506 94 357 5.0 7.0 0.00 0.00 0.00 11 1008.2
20180620015005 94 324 3.0 4.0 0.00 0.00 0.00 11 1008.2
20180620014503 94 28 4.0 7.0 0.00 0.00 0.00 11 1008.2
20180620014008 93 52 4.0 5.0 0.00 0.00 0.00 11 1008.2
20180620013507 95 53 4.0 5.0 0.00 0.00 0.00 11 1008.2
20180620013006 96 36 5.0 6.0 0.00 0.00 0.00 11 1008.2
20180620012505 96 44 4.0 5.0 0.00 0.00 0.00 11 1008.2
20180620012003 96 61 4.0 5.0 0.00 0.00 0.00 11 1008.2
20180620011508 95 4 4.0 6.0 0.00 0.00 0.00 11 1008.2
20180620011007 96 11 5.0 6.0 0.00 0.00 0.00 11 1008.2
20180620010506 96 64 4.0 4.0 0.00 0.00 0.00 11 1008.2
20180620010004 96 13 5.0 6.0 0.00 0.00 0.00 11 1008.2
20180620005503 98 353 6.0 7.0 0.00 0.00 0.00 11 1008.2
20180620005008 98 24 0.0 4.0 0.00 0.00 0.00 11 1008.2
20180620004506 99 6 3.0 4.0 0.00 0.00 0.00 10 1008.2
20180620004005 99 31 2.0 5.0 0.00 0.00 0.00 10 1008.2
20180620003504 99 72 4.0 5.0 0.00 0.00 0.00 10 1008.2
20180620003008 100 38 4.0 6.0 0.00 0.00 0.00 10 1009.2
20180620002507 100 307 3.0 4.0 0.00 0.00 0.00 10 1009.2
20180620002006 101 278 2.0 4.0 0.00 0.00 0.00 10 1009.2
20180620001505 101 302 6.0 6.0 0.00 0.00 0.00 10 1009.2
20180620001004 101 357 5.0 7.0 0.00 0.00 0.00 10 1009.2
20180620000509 101 309 4.0 6.0 0.00 0.00 0.00 10 1009.2
20180620000008 101 297 4.0 6.0 0.00 0.00 0.00 10 1009.2
20180619235507 101 0 5.0 7.0 0.00 0.00 0.00 10 1009.2
20180619235005 100 342 4.0 5.0 0.00 0.00 0.00 10 1009.2
20180619234504 100 332 6.0 9.0 0.00 0.00 0.00 10 1009.2
20180619234008 101 296 6.0 7.0 0.00 0.00 0.00 10 1009.2
20180619233508 102 336 5.0 6.0 0.00 0.00 0.00 10 1009.2
20180619233006 102 273 4.0 5.0 0.00 0.00 0.00 12 1009.2
20180619232505 101 287 7.0 9.0 0.00 0.00 0.00 10 1009.2
20180619232004 101 265 6.0 7.0 0.00 0.00 0.00 10 1009.2
20180619231508 101 336 5.0 5.0 0.00 0.00 0.00 10 1009.2
20180619231007 102 9 6.0 7.0 0.00 0.00 0.00 10 1009.2
20180619230506 102 357 3.0 6.0 0.00 0.00 0.00 12 1009.2
20180619230005 102 328 5.0 6.0 0.00 0.00 0.00 10 1009.2
20180619225504 101 318 5.0 6.0 0.00 0.00 0.00 10 1009.2
20180619225003 101 337 5.0 5.0 0.00 0.00 0.00 10 1009.2
20180619224507 101 357 3.0 4.0 0.00 0.00 0.00 10 1010.2
20180619224006 101 284 6.0 7.0 0.00 0.00 0.00 10 1010.2
20180619223505 101 299 6.0 7.0 0.00 0.00 0.00 10 1010.2
20180619223004 101 325 5.0 7.0 0.00 0.00 0.00 10 1010.2
20180619222503 102 33 3.0 5.0 0.00 0.00 0.00 12 1010.2
20180619222007 101 297 4.0 5.0 0.00 0.00 0.00 10 1010.2
20180619221506 101 14 4.0 6.0 0.00 0.00 0.00 12 1010.2
20180619221005 101 268 4.0 5.0 0.00 0.00 0.00 10 1010.2
20180619220504 101 330 5.0 6.0 0.00 0.00 0.00 10 1010.2
20180619220002 101 328 5.0 6.0 0.00 0.00 0.00 10 1010.2
20180619215507 100 317 4.0 5.0 0.00 0.00 0.00 10 1010.2
20180619215006 99 310 5.0 6.0 0.00 0.00 0.00 10 1010.2
20180619214504 98 39 2.0 4.0 0.00 0.00 0.00 11 1010.2
20180619214003 98 75 3.0 5.0 0.00 0.00 0.00 11 1010.2
20180619213508 99 99 7.0 9.0 0.00 0.00 0.00 10 1010.2
20180619213007 98 119 4.0 5.0 0.00 0.00 0.00 11 1010.2
20180619212506 98 34 5.0 6.0 0.00 0.00 0.00 11 1010.2
20180619212005 98 63 5.0 9.0 0.00 0.00 0.00 11 1010.2
20180619211505 98 82 4.0 4.0 0.00 0.00 0.00 11 1010.2
20180619211003 97 42 4.0 4.0 0.00 0.00 0.00 11 1010.2
20180619210508 97 336 3.0 5.0 0.00 0.00 0.00 11 1010.2
20180619210006 96 304 6.0 7.0 0.00 0.00 0.00 11 1010.2
20180619205505 96 310 5.0 6.0 0.00 0.00 0.00 11 1010.2
20180619205004 97 53 6.0 8.0 0.00 0.00 0.00 11 1010.2
20180619204503 97 322 4.0 7.0 0.00 0.00 0.00 11 1010.2
20180619204008 97 15 5.0 6.0 0.00 0.00 0.00 11 1010.2
20180619203506 96 357 3.0 5.0 0.00 0.00 0.00 11 1010.2
20180619203005 95 311 4.0 4.0 0.00 0.00 0.00 11 1011.2
20180619202504 95 353 5.0 8.0 0.00 0.00 0.00 11 1011.2
20180619202009 94 51 6.0 8.0 0.00 0.00 0.00 11 1011.2
20180619201508 94 323 2.0 3.0 0.00 0.00 0.00 11 1011.2
20180619201006 95 350 4.0 7.0 0.00 0.00 0.00 11 1011.2
20180619200505 94 273 5.0 6.0 0.00 0.00 0.00 11 1011.2
20180619200004 94 239 6.0 7.0 0.00 0.00 0.00 11 1011.2
20180619195502 93 313 4.0 4.0 0.00 0.00 0.00 12 1011.2
20180619195007 92 316 1.0 4.0 0.00 0.00 0.00 12 1011.2
20180619194506 92 241 6.0 8.0 0.00 0.00 0.00 12 1011.2
20180619194005 92 343 4.0 5.0 0.00 0.00 0.00 12 1011.2
20180619193503 91 269 2.0 5.0 0.00 0.00 0.00 12 1011.2
20180619193008 91 323 3.0 4.0 0.00 0.00 0.00 12 1011.2
20180619192507 90 243 4.0 6.0 0.00 0.00 0.00 12 1011.2
20180619192006 91 250 5.0 5.0 0.00 0.00 0.00 12 1011.2
20180619191505 91 228 4.0 4.0 0.00 0.00 0.00 12 1011.2
20180619191004 91 286 4.0 6.0 0.00 0.00 0.00 12 1011.2
20180619190508 90 321 4.0 6.0 0.00 0.00 0.00 12 1011.2
20180619190007 91 340 2.0 5.0 0.00 0.00 0.00 12 1011.2
20180619185506 91 353 3.0 4.0 0.00 0.00 0.00 15 1011.2
20180619185005 91 276 1.0 3.0 0.00 0.00 0.00 15 1011.2
20180619184504 89 276 4.0 4.0 0.00 0.00 0.00 15 1011.2
20180619184002 88 340 3.0 4.0 0.00 0.00 0.00 15 1011.2
20180619183507 87 345 5.0 5.0 0.00 0.00 0.00 16 1011.2
20180619183006 87 330 5.0 7.0 0.00 0.00 0.00 16 1012.2
20180619182505 87 252 4.0 5.0 0.00 0.00 0.00 16 1012.2
20180619182004 88 253 3.0 4.0 0.00 0.00 0.00 16 1012.2
20180619181503 87 323 2.0 3.0 0.00 0.00 0.00 16 1012.2
20180619181008 87 315 4.0 6.0 0.00 0.00 0.00 16 1012.2
20180619180507 86 312 4.0 5.0 0.00 0.00 0.00 16 1012.2
20180619180006 86 302 3.0 5.0 0.00 0.00 0.00 16 1012.2
20180619175505 85 275 5.0 5.0 0.00 0.00 0.00 16 1012.2
20180619175003 84 313 5.0 6.0 0.00 0.00 0.00 16 1012.2
20180619174508 84 307 4.0 4.0 0.00 0.00 0.00 16 1012.2
20180619174007 83 337 1.0 3.0 0.00 0.00 0.00 16 1012.2
20180619173506 82 318 4.0 5.0 0.00 0.00 0.00 17 1012.2
20180619173005 81 283 4.0 5.0 0.00 0.00 0.00 17 1012.2
20180619172504 82 258 3.0 4.0 0.00 0.00 0.00 17 1012.2
20180619172003 82 247 2.0 4.0 0.00 0.00 0.00 17 1012.2
20180619171507 82 258 4.0 5.0 0.00 0.00 0.00 17 1012.2
20180619171005 82 295 5.0 6.0 0.00 0.00 0.00 17 1012.2
20180619170505 82 276 4.0 5.0 0.00 0.00 0.00 16 1012.2
20180619170003 83 268 5.0 6.0 0.00 0.00 0.00 16 1012.2
20180619165508 83 342 1.0 4.0 0.00 0.00 0.00 16 1012.2
20180619165013 82 295 3.0 4.0 0.00 0.00 0.00 17 1012.2
20180619164505 81 295 3.0 4.0 0.00 0.00 0.00 17 1012.2
20180619164004 81 289 4.0 5.0 0.00 0.00 0.00 17 1012.2
20180619163502 81 342 5.0 5.0 0.00 0.00 0.00 19 1012.2
20180619163007 81 292 4.0 5.0 0.00 0.00 0.00 19 1012.2
20180619162506 80 8 0.0 0.0 0.00 0.00 0.00 20 1012.2
20180619162005 79 8 3.0 4.0 0.00 0.00 0.00 20 1012.2
20180619161504 79 9 4.0 4.0 0.00 0.00 0.00 20 1012.2
20180619161003 78 107 1.0 4.0 0.00 0.00 0.00 20 1012.2
20180619160508 79 103 4.0 4.0 0.00 0.00 0.00 20 1012.2
20180619160006 78 8 4.0 4.0 0.00 0.00 0.00 20 1012.2
20180619155505 77 38 3.0 4.0 0.00 0.00 0.00 21 1012.2
20180619155004 76 20 3.0 3.0 0.00 0.00 0.00 21 1012.2
20180619154503 76 22 3.0 4.0 0.00 0.00 0.00 21 1012.2
20180619154008 75 357 1.0 4.0 0.00 0.00 0.00 21 1012.2
20180619153506 75 31 4.0 5.0 0.00 0.00 0.00 22 1012.2
20180619153005 74 30 3.0 4.0 0.00 0.00 0.00 22 1012.2
20180619152504 74 46 3.0 5.0 0.00 0.00 0.00 23 1012.2
20180619152003 73 24 5.0 6.0 0.00 0.00 0.00 24 1012.2
20180619151508 71 58 4.0 4.0 0.00 0.00 0.00 25 1012.2
20180619151006 70 55 4.0 5.0 0.00 0.00 0.00 27 1012.2
20180619150505 68 19 2.0 7.0 0.00 0.00 0.00 30 1012.2
20180619150004 67 48 3.0 4.0 0.00 0.00 0.00 34 1012.2
20180619145503 65 79 0.0 3.0 0.00 0.00 0.00 37 1012.2
20180619145008 64 45 5.0 6.0 0.00 0.00 0.00 40 1012.2
20180619144506 63 60 3.0 5.0 0.00 0.00 0.00 40 1012.2
20180619144006 63 357 1.0 4.0 0.00 0.00 0.00 42 1012.2
20180619143504 62 339 4.0 5.0 0.00 0.00 0.00 44 1012.2
20180619143003 62 357 5.0 5.0 0.00 0.00 0.00 44 1012.2
20180619142508 61 35 4.0 6.0 0.00 0.00 0.00 46 1012.2
20180619142007 61 10 3.0 5.0 0.00 0.00 0.00 50 1012.2
20180619141506 60 21 1.0 3.0 0.00 0.00 0.00 52 1012.2
20180619141004 60 6 3.0 4.0 0.00 0.00 0.00 54 1012.2
20180619140503 59 50 1.0 3.0 0.00 0.00 0.00 56 1012.2
20180619140008 59 101 2.0 5.0 0.00 0.00 0.00 58 1012.2
20180619135507 59 9 3.0 4.0 0.00 0.00 0.00 58 1012.2
20180619135006 58 1 2.0 4.0 0.00 0.00 0.00 57 1012.2
20180619134505 58 1 0.0 3.0 0.00 0.00 0.00 56 1012.2
20180619134003 58 1 0.0 0.0 0.00 0.00 0.00 56 1012.2
20180619133508 58 1 0.0 0.0 0.00 0.00 0.00 56 1012.2
20180619133007 58 1 0.0 0.0 0.00 0.00 0.00 56 1012.2
20180619132506 58 1 0.0 3.0 0.00 0.00 0.00 57 1012.2
20180619132005 58 1 1.0 3.0 0.00 0.00 0.00 58 1012.2
20180619131504 58 1 0.0 0.0 0.00 0.00 0.00 57 1012.2
20180619131003 58 1 0.0 4.0 0.00 0.00 0.00 56 1012.2
20180619130507 58 349 1.0 3.0 0.00 0.00 0.00 56 1012.2
20180619130006 58 350 0.0 0.0 0.00 0.00 0.00 51 1012.2
20180619125504 58 349 0.0 0.0 0.00 0.00 0.00 51 1012.2
20180619125003 58 349 0.0 0.0 0.00 0.00 0.00 51 1012.2
20180619124507 58 349 0.0 0.0 0.00 0.00 0.00 51 1012.2
20180619124006 58 349 0.0 0.0 0.00 0.00 0.00 51 1012.2
20180619123505 58 349 0.0 0.0 0.00 0.00 0.00 51 1012.2
20180619123004 58 349 0.0 0.0 0.00 0.00 0.00 51 1012.2
20180619122508 58 349 0.0 0.0 0.00 0.00 0.00 50 1012.2
20180619122007 58 349 0.0 3.0 0.00 0.00 0.00 50 1012.2
20180619121505 58 271 0.0 0.0 0.00 0.00 0.00 50 1012.2
20180619121004 58 271 0.0 0.0 0.00 0.00 0.00 50 1012.2
20180619120503 58 271 0.0 0.0 0.00 0.00 0.00 50 1012.2
20180619120008 58 271 0.0 0.0 0.00 0.00 0.00 49 1012.2
20180619115506 59 271 0.0 0.0 0.00 0.00 0.00 49 1012.2
20180619115006 59 271 0.0 0.0 0.00 0.00 0.00 49 1012.2
20180619114505 59 271 0.0 0.0 0.00 0.00 0.00 50 1012.2
20180619114009 59 271 0.0 0.0 0.00 0.00 0.00 50 1012.2
20180619113507 59 271 0.0 0.0 0.00 0.00 0.00 50 1012.2
20180619113006 59 271 0.0 0.0 0.00 0.00 0.00 50 1012.2
20180619112505 59 271 0.0 0.0 0.00 0.00 0.00 50 1012.2
20180619112004 59 271 0.0 0.0 0.00 0.00 0.00 50 1012.2
20180619111502 59 272 0.0 0.0 0.00 0.00 0.00 49 1011.2
20180619111008 59 272 0.0 0.0 0.00 0.00 0.00 48 1011.2
20180619110507 60 272 0.0 0.0 0.00 0.00 0.00 47 1011.2
20180619110006 60 272 0.0 0.0 0.00 0.00 0.00 46 1012.2
20180619105505 60 272 0.0 0.0 0.00 0.00 0.00 46 1012.2
20180619105004 60 272 0.0 0.0 0.00 0.00 0.00 46 1012.2
20180619104503 60 272 0.0 0.0 0.00 0.00 0.00 46 1012.2
20180619104002 60 272 0.0 0.0 0.00 0.00 0.00 46 1012.2
20180619103507 60 272 0.0 0.0 0.00 0.00 0.00 46 1012.2
20180619103006 60 272 0.0 0.0 0.00 0.00 0.00 45 1012.2
20180619102505 61 272 0.0 0.0 0.00 0.00 0.00 45 1012.2
20180619102004 61 272 0.0 0.0 0.00 0.00 0.00 45 1012.2
20180619101503 61 272 0.0 0.0 0.00 0.00 0.00 45 1012.2
20180619101008 61 272 0.0 0.0 0.00 0.00 0.00 45 1012.2
20180619100507 61 272 0.0 0.0 0.00 0.00 0.00 45 1012.2
20180619100006 61 272 0.0 0.0 0.00 0.00 0.00 46 1012.2
20180619095505 61 272 0.0 0.0 0.00 0.00 0.00 46 1012.2
20180619095004 62 272 0.0 0.0 0.00 0.00 0.00 46 1012.2
20180619094503 62 272 0.0 0.0 0.00 0.00 0.00 46 1012.2
20180619094002 62 272 0.0 0.0 0.00 0.00 0.00 46 1012.2
20180619093507 62 272 0.0 0.0 0.00 0.00 0.00 46 1012.2
20180619093006 62 272 0.0 0.0 0.00 0.00 0.00 46 1011.2
20180619092504 62 272 0.0 0.0 0.00 0.00 0.00 45 1011.2
20180619092003 63 272 0.0 0.0 0.00 0.00 0.00 44 1011.2
20180619091502 63 272 0.0 0.0 0.00 0.00 0.00 44 1011.2
20180619091008 63 272 0.0 0.0 0.00 0.00 0.00 44 1011.2
20180619090506 63 272 0.0 0.0 0.00 0.00 0.00 44 1011.2
20180619090005 63 272 0.0 0.0 0.00 0.00 0.00 44 1011.2
20180619085504 63 272 0.0 0.0 0.00 0.00 0.00 44 1011.2
20180619085003 64 272 0.0 0.0 0.00 0.00 0.00 44 1011.2
20180619084508 64 272 0.0 0.0 0.00 0.00 0.00 44 1011.2
20180619084007 64 272 0.0 0.0 0.00 0.00 0.00 43 1011.2
20180619083506 64 272 0.0 0.0 0.00 0.00 0.00 43 1011.2
20180619083005 64 272 0.0 0.0 0.00 0.00 0.00 44 1011.2
20180619082504 64 272 0.0 0.0 0.00 0.00 0.00 43 1011.2
20180619082003 64 272 0.0 0.0 0.00 0.00 0.00 42 1011.2
20180619081508 64 272 0.0 0.0 0.00 0.00 0.00 42 1011.2
20180619081007 65 272 0.0 0.0 0.00 0.00 0.00 42 1011.2
20180619080506 65 272 0.0 0.0 0.00 0.00 0.00 41 1011.2
20180619080004 65 272 0.0 0.0 0.00 0.00 0.00 40 1011.2
20180619075503 65 272 0.0 0.0 0.00 0.00 0.00 39 1011.2
20180619075008 66 272 0.0 0.0 0.00 0.00 0.00 39 1011.2
20180619074519 66 272 0.0 0.0 0.00 0.00 0.00 39 1011.2
20180619074005 66 272 0.0 0.0 0.00 0.00 0.00 40 1011.2
20180619073504 66 272 0.0 0.0 0.00 0.00 0.00 41 1011.2
20180619073003 66 272 0.0 0.0 0.00 0.00 0.00 43 1011.2
20180619072508 66 259 0.0 0.0 0.00 0.00 0.00 44 1011.2
20180619072006 66 260 0.0 0.0 0.00 0.00 0.00 40 1011.2
20180619071505 67 260 0.0 0.0 0.00 0.00 0.00 36 1011.2
20180619071004 67 260 0.0 0.0 0.00 0.00 0.00 36 1011.2
20180619070502 67 260 0.0 0.0 0.00 0.00 0.00 36 1011.2
20180619070007 67 260 0.0 0.0 0.00 0.00 0.00 35 1011.2
20180619065506 67 260 0.0 0.0 0.00 0.00 0.00 35 1011.2
20180619065005 68 260 0.0 0.0 0.00 0.00 0.00 35 1011.2
20180619064504 68 260 0.0 0.0 0.00 0.00 0.00 34 1011.2
20180619064002 68 260 0.0 0.0 0.00 0.00 0.00 33 1011.2
20180619063507 68 260 0.0 0.0 0.00 0.00 0.00 33 1011.2
20180619063006 69 260 0.0 0.0 0.00 0.00 0.00 32 1011.2
20180619062505 69 260 0.0 0.0 0.00 0.00 0.00 30 1011.2
20180619062004 69 260 0.0 0.0 0.00 0.00 0.00 28 1011.2
20180619061502 69 260 0.0 0.0 0.00 0.00 0.00 28 1010.2
20180619061007 69 260 0.0 0.0 0.00 0.00 0.00 27 1010.2
20180619060506 70 260 0.0 0.0 0.00 0.00 0.00 28 1010.2
20180619060004 70 260 0.0 0.0 0.00 0.00 0.00 28 1011.2
20180619055503 70 260 0.0 0.0 0.00 0.00 0.00 28 1011.2
20180619055002 70 260 0.0 0.0 0.00 0.00 0.00 27 1011.2
20180619054507 71 260 0.0 0.0 0.00 0.00 0.00 27 1011.2
20180619054006 71 260 0.0 0.0 0.00 0.00 0.00 27 1011.2
20180619053505 71 260 0.0 0.0 0.00 0.00 0.00 26 1011.2
20180619053003 71 260 0.0 0.0 0.00 0.00 0.00 26 1011.2
20180619052502 72 260 0.0 0.0 0.00 0.00 0.00 25 1011.2
20180619052007 72 260 0.0 0.0 0.00 0.00 0.00 25 1011.2
20180619051505 72 260 0.0 0.0 0.00 0.00 0.00 25 1010.2
20180619051004 72 260 0.0 0.0 0.00 0.00 0.00 24 1010.2
20180619050503 72 260 0.0 0.0 0.00 0.00 0.00 24 1010.2
20180619050007 73 260 0.0 0.0 0.00 0.00 0.00 24 1010.2
20180619045506 73 260 0.0 0.0 0.00 0.00 0.00 24 1010.2
20180619045005 73 260 0.0 0.0 0.00 0.00 0.00 24 1010.2
20180619044503 73 260 0.0 0.0 0.00 0.00 0.00 24 1010.2
20180619044008 74 260 0.0 0.0 0.00 0.00 0.00 22 1010.2
20180619043507 74 260 0.0 0.0 0.00 0.00 0.00 22 1010.2
20180619043006 74 260 0.0 0.0 0.00 0.00 0.00 22 1010.2
20180619042505 75 260 0.0 0.0 0.00 0.00 0.00 22 1010.2
20180619042004 75 260 0.0 0.0 0.00 0.00 0.00 21 1010.2
20180619041502 76 261 0.0 0.0 0.00 0.00 0.00 21 1010.2
20180619041007 76 261 0.0 0.0 0.00 0.00 0.00 21 1010.2
20180619040506 76 261 0.0 0.0 0.00 0.00 0.00 21 1010.2
20180619040005 77 261 0.0 0.0 0.00 0.00 0.00 21 1010.2
20180619035504 77 261 0.0 0.0 0.00 0.00 0.00 20 1010.2
20180619035003 78 261 0.0 0.0 0.00 0.00 0.00 20 1010.2
20180619034508 78 261 0.0 0.0 0.00 0.00 0.00 20 1010.2
20180619034006 78 261 0.0 0.0 0.00 0.00 0.00 18 1010.2
20180619033505 79 261 0.0 0.0 0.00 0.00 0.00 17 1010.2
20180619033004 79 261 0.0 0.0 0.00 0.00 0.00 17 1010.2
20180619032503 80 261 0.0 0.0 0.00 0.00 0.00 17 1010.2
20180619032007 80 261 0.0 0.0 0.00 0.00 0.00 17 1010.2
20180619031506 80 261 0.0 0.0 0.00 0.00 0.00 17 1010.2
20180619031005 81 261 0.0 0.0 0.00 0.00 0.00 17 1010.2
20180619030503 81 261 0.0 0.0 0.00 0.00 0.00 14 1010.2
20180619030003 82 261 0.0 0.0 0.00 0.00 0.00 14 1009.2
20180619025507 82 261 0.0 0.0 0.00 0.00 0.00 14 1009.2
20180619025006 82 261 0.0 0.0 0.00 0.00 0.00 17 1009.2
20180619024505 82 261 0.0 0.0 0.00 0.00 0.00 14 1010.2
20180619024004 83 261 0.0 0.0 0.00 0.00 0.00 14 1010.2
20180619023503 83 260 0.0 0.0 0.00 0.00 0.00 14 1010.2
20180619023007 84 261 0.0 0.0 0.00 0.00 0.00 14 1010.2
20180619022506 84 261 0.0 0.0 0.00 0.00 0.00 14 1010.2
20180619022006 84 261 0.0 0.0 0.00 0.00 0.00 13 1010.2
20180619021504 84 261 1.0 3.0 0.00 0.00 0.00 13 1010.2
20180619021008 84 260 4.0 5.0 0.00 0.00 0.00 13 1010.2